Date,TemperatureHighF,TemperatureAvgF,TemperatureLowF,DewpointHighF,DewpointAvgF,DewpointLowF,HumidityHigh,HumidityAvg,HumidityLow,PressureMaxIn,PressureMinIn,WindSpeedMaxMPH,WindSpeedAvgMPH,GustSpeedMaxMPH,PrecipitationSumIn
2013-3-1,55,50,46,48,45,43,93,85,72,29.83,29.66,12,3,17,0.02
2013-3-2,62,55,46,45,42,38,84,63,43,30.10,29.83,17,5,21,0.00
2013-3-3,63,51,42,52,44,37,86,77,52,30.09,29.96,9,3,10,0.00
2013-3-4,63,56,50,54,51,47,89,83,72,29.96,29.67,11,6,15,0.02
2013-3-5,68,61,56,55,53,50,90,77,55,29.66,29.30,10,6,16,0.03
2013-3-6,61,58,56,56,54,52,93,88,82,29.57,29.27,25,9,32,0.01
2013-3-7,68,61,57,57,54,51,92,80,61,29.73,29.57,18,6,22,0.01
2013-3-8,66,62,58,57,53,48,92,75,52,29.79,29.61,21,11,25,0.01
2013-3-9,66,60,56,55,52,44,93,76,44,29.77,29.70,16,6,20,0.00
2013-3-10,62,58,57,56,51,46,92,78,57,29.72,29.63,19,9,24,0.00
2013-3-11,60,58,55,52,48,46,80,71,59,29.71,29.62,18,12,24,0.00
2013-3-12,61,57,51,52,46,39,84,67,45,29.65,29.52,18,10,27,0.00
2013-3-13,58,50,44,51,44,38,90,82,63,29.62,29.36,23,6,30,0.13
2013-3-14,54,50,46,38,34,28,75,55,39,29.84,29.62,22,11,30,0.00
2013-3-15,54,50,40,37,33,28,65,53,37,30.09,29.84,15,7,22,0.00
2013-3-16,57,48,37,45,38,27,79,69,60,30.08,29.86,6,3,12,0.00
2013-3-17,61,55,46,55,49,42,91,81,60,29.86,29.48,13,3,14,0.20
2013-3-18,62,58,49,55,47,32,93,70,34,29.78,29.45,13,6,15,0.13
2013-3-19,60,54,47,55,50,41,92,85,75,29.78,29.57,7,2,9,0.00
2013-3-20,61,55,48,54,48,43,92,79,54,30.11,29.54,13,4,17,0.00
2013-3-21,60,53,45,54,49,42,91,86,81,30.13,29.96,6,2,9,0.00
2013-3-22,63,55,46,57,51,44,96,88,72,29.96,29.72,6,2,8,0.00
2013-3-23,62,58,54,55,53,51,94,85,73,29.75,29.58,11,3,14,0.00
2013-3-24,66,58,54,54,51,45,90,78,48,29.62,29.50,10,4,12,0.00
2013-3-25,65,59,50,54,48,42,88,69,46,29.76,29.61,18,9,26,0.00
2013-3-26,66,61,58,56,54,51,93,78,63,29.68,29.58,22,9,32,0.03
2013-3-27,65,60,58,56,55,51,92,83,61,29.70,29.55,13,6,18,0.01
2013-3-28,63,60,56,57,56,52,94,87,77,29.85,29.65,13,4,18,0.01
2013-3-29,64,59,51,56,54,48,92,83,68,29.85,29.71,18,6,23,0.00
2013-3-30,69,65,60,56,48,39,86,55,34,29.81,29.63,21,10,26,0.00
2013-3-31,68,61,58,55,49,42,88,65,41,29.81,29.65,13,6,16,0.00